createdAt,value
2023-06-17T00:00:45.645Z,7.93
2023-06-17T00:03:12.390Z,8.90
2023-06-17T00:05:39.522Z,7.32
2023-06-17T00:08:06.044Z,8.38
2023-06-17T00:10:32.685Z,9.10
2023-06-17T00:12:59.696Z,7.97
2023-06-17T00:15:26.507Z,8.85
2023-06-17T00:17:53.342Z,6.25
2023-06-17T00:20:20.274Z,8.15
2023-06-17T00:22:48.148Z,7.20
2023-06-17T00:25:14.749Z,8.95
2023-06-17T00:27:41.639Z,7.15
2023-06-17T00:30:08.889Z,11.80
2023-06-17T00:32:35.910Z,8.07
2023-06-17T00:35:06.936Z,8.55
2023-06-17T00:37:33.630Z,7.00
2023-06-17T00:40:00.467Z,8.90
2023-06-17T00:42:26.995Z,8.23
2023-06-17T00:44:53.730Z,9.27
2023-06-17T00:47:20.776Z,7.85
2023-06-17T00:49:48.284Z,7.82
2023-06-17T00:52:31.061Z,8.95
2023-06-17T00:55:02.537Z,7.85
2023-06-17T00:57:30.386Z,8.15
2023-06-17T00:59:56.956Z,8.63
2023-06-17T01:02:26.818Z,6.90
2023-06-17T01:04:55.336Z,7.15
2023-06-17T01:07:41.344Z,8.80
2023-06-17T01:10:18.203Z,5.88
2023-06-17T01:12:47.687Z,11.77
2023-06-17T01:15:17.559Z,6.43
2023-06-17T01:17:47.311Z,11.10
2023-06-17T01:20:14.962Z,11.18
2023-06-17T01:22:42.673Z,8.55
2023-06-17T01:25:10.679Z,8.00
2023-06-17T01:27:37.218Z,6.90
2023-06-17T01:30:04.154Z,8.32
2023-06-17T01:32:30.802Z,6.82
2023-06-17T01:35:00.508Z,8.73
2023-06-17T01:37:33.061Z,10.55
2023-06-17T01:40:01.974Z,8.75
2023-06-17T01:42:32.763Z,8.90
2023-06-17T01:45:06.272Z,8.07
2023-06-17T01:47:33.332Z,8.32
2023-06-17T01:50:01.709Z,10.07
2023-06-17T01:52:28.490Z,6.90
2023-06-17T01:54:55.426Z,7.63
2023-06-17T01:57:22.088Z,10.63
2023-06-17T01:59:48.781Z,8.88
2023-06-17T02:02:15.920Z,9.18
2023-06-17T02:04:42.732Z,9.18
2023-06-17T02:07:11.371Z,8.55
2023-06-17T02:09:38.691Z,10.52
2023-06-17T02:12:06.491Z,8.80
2023-06-17T02:14:34.359Z,10.02
2023-06-17T02:17:01.566Z,9.88
2023-06-17T02:19:30.196Z,8.52
2023-06-17T02:21:56.873Z,7.97
2023-06-17T02:24:23.731Z,8.68
2023-06-17T02:26:50.891Z,7.25
2023-06-17T02:29:18.158Z,9.30
2023-06-17T02:31:44.864Z,6.78
2023-06-17T02:34:11.501Z,8.20
2023-06-17T02:36:41.068Z,8.38
2023-06-17T02:39:08.027Z,8.38
2023-06-17T02:41:34.948Z,10.27
2023-06-17T02:44:01.504Z,10.90
2023-06-17T02:46:28.539Z,6.95
2023-06-17T02:48:56.126Z,7.00
2023-06-17T02:51:23.326Z,8.65
2023-06-17T02:53:51.226Z,8.32
2023-06-17T02:56:18.317Z,8.30
2023-06-17T02:58:46.781Z,9.93
2023-06-17T03:01:14.120Z,8.68
2023-06-17T03:03:42.950Z,7.68
2023-06-17T03:06:10.451Z,6.70
2023-06-17T03:08:41.374Z,7.50
2023-06-17T03:11:08.491Z,8.07
2023-06-17T03:13:35.021Z,7.13
2023-06-17T03:16:02.451Z,7.25
2023-06-17T03:18:29.547Z,8.07
2023-06-17T03:20:56.248Z,9.05
2023-06-17T03:23:23.032Z,11.98
2023-06-17T03:25:51.207Z,9.25
2023-06-17T03:28:18.985Z,9.77
2023-06-17T03:30:46.201Z,10.48
2023-06-17T03:33:14.630Z,9.10
2023-06-17T03:35:41.793Z,12.15
2023-06-17T03:38:10.292Z,8.43
2023-06-17T03:40:37.660Z,6.90
2023-06-17T03:43:04.130Z,10.80
2023-06-17T03:45:31.874Z,7.72
2023-06-17T03:47:59.483Z,6.47
2023-06-17T03:50:26.200Z,7.85
2023-06-17T03:52:52.836Z,9.93
2023-06-17T03:55:19.418Z,10.38
2023-06-17T03:57:46.243Z,7.90
2023-06-17T04:00:14.962Z,8.90
2023-06-17T04:02:46.153Z,10.90
2023-06-17T04:05:14.389Z,8.75
2023-06-17T04:07:41.276Z,9.70
2023-06-17T04:10:09.601Z,11.73
2023-06-17T04:12:39.935Z,9.05
2023-06-17T04:15:08.172Z,8.02
2023-06-17T04:17:37.314Z,8.52
2023-06-17T04:20:13.883Z,10.45
2023-06-17T04:22:41.913Z,10.10
2023-06-17T04:25:10.920Z,6.97
2023-06-17T04:27:37.980Z,10.30
2023-06-17T04:30:06.689Z,10.05
2023-06-17T04:32:36.426Z,6.97
2023-06-17T04:35:06.357Z,7.63
2023-06-17T04:37:33.954Z,9.00
2023-06-17T04:40:00.863Z,9.25
2023-06-17T04:42:27.842Z,9.50
2023-06-17T04:44:54.450Z,9.85
2023-06-17T04:47:21.192Z,12.50
2023-06-17T04:49:49.002Z,8.32
2023-06-17T04:52:15.561Z,9.88
2023-06-17T04:54:42.953Z,8.48
2023-06-17T04:57:09.758Z,8.98
2023-06-17T04:59:36.286Z,9.32
2023-06-17T05:02:03.289Z,12.48
2023-06-17T05:04:30.172Z,11.35
2023-06-17T05:06:56.732Z,10.15
2023-06-17T05:09:23.845Z,8.82
2023-06-17T05:11:50.869Z,8.85
2023-06-17T05:14:17.479Z,8.43
2023-06-17T05:16:44.177Z,9.55
2023-06-17T05:19:10.750Z,10.77
2023-06-17T05:21:37.276Z,11.15
2023-06-17T05:24:04.112Z,12.32
2023-06-17T05:26:30.981Z,9.27
2023-06-17T05:28:58.207Z,7.43
2023-06-17T05:31:24.802Z,7.95
2023-06-17T05:33:51.472Z,11.65
2023-06-17T05:36:18.011Z,11.35
2023-06-17T05:38:44.494Z,12.48
2023-06-17T05:41:11.103Z,6.78
2023-06-17T05:43:37.701Z,11.75
2023-06-17T05:46:04.249Z,11.77
2023-06-17T05:48:30.820Z,11.77
2023-06-17T05:50:57.443Z,9.98
2023-06-17T05:53:23.968Z,7.80
2023-06-17T05:55:50.560Z,8.98
2023-06-17T05:58:17.080Z,10.30
2023-06-17T06:00:43.592Z,6.50
2023-06-17T06:03:10.157Z,10.85
2023-06-17T06:05:37.040Z,7.93
2023-06-17T06:08:03.655Z,9.27
2023-06-17T06:10:30.199Z,8.77
2023-06-17T06:12:56.871Z,6.70
2023-06-17T06:15:24.614Z,7.70
2023-06-17T06:17:51.199Z,8.52
2023-06-17T06:20:17.855Z,7.25
2023-06-17T06:22:44.627Z,9.35
2023-06-17T06:25:11.392Z,8.30
2023-06-17T06:27:37.940Z,11.45
2023-06-17T06:30:04.770Z,11.23
2023-06-17T06:32:31.399Z,7.28
2023-06-17T06:34:58.026Z,9.95
2023-06-17T06:37:24.651Z,8.30
2023-06-17T06:39:51.245Z,8.95
2023-06-17T06:42:17.779Z,8.80
2023-06-17T06:44:44.264Z,8.10
2023-06-17T06:47:10.776Z,7.13
2023-06-17T06:49:37.276Z,6.90
2023-06-17T06:52:04.059Z,7.82
2023-06-17T06:54:30.672Z,7.35
2023-06-17T06:56:57.843Z,7.75
2023-06-17T06:59:24.311Z,7.90
2023-06-17T07:01:50.940Z,9.55
2023-06-17T07:04:17.885Z,13.35
2023-06-17T07:06:44.474Z,8.63
2023-06-17T07:09:11.070Z,8.02
2023-06-17T07:11:37.566Z,10.75
2023-06-17T07:14:04.194Z,10.43
2023-06-17T07:16:30.932Z,10.25
2023-06-17T07:18:57.575Z,8.13
2023-06-17T07:21:24.117Z,5.75
2023-06-17T07:23:51.842Z,7.68
2023-06-17T07:26:18.385Z,9.40
2023-06-17T07:28:44.993Z,11.05
2023-06-17T07:31:11.972Z,6.90
2023-06-17T07:33:38.591Z,8.52
2023-06-17T07:36:05.190Z,9.68
2023-06-17T07:38:34.069Z,7.03
2023-06-17T07:41:01.277Z,8.45
2023-06-17T07:43:27.880Z,6.80
2023-06-17T07:45:54.456Z,8.95
2023-06-17T07:48:21.257Z,9.32
2023-06-17T07:50:47.825Z,9.38
2023-06-17T07:53:14.566Z,7.53
2023-06-17T07:55:41.063Z,8.55
2023-06-17T07:58:07.651Z,7.22
2023-06-17T08:00:34.177Z,7.28
2023-06-17T08:03:01.099Z,7.45
2023-06-17T08:05:27.663Z,10.77
2023-06-17T08:07:54.179Z,13.20
2023-06-17T08:10:21.126Z,6.78
2023-06-17T08:12:48.614Z,8.73
2023-06-17T08:15:15.263Z,8.50
2023-06-17T08:17:41.922Z,6.88
2023-06-17T08:20:11.237Z,9.13
2023-06-17T08:22:37.963Z,5.85
2023-06-17T08:25:04.678Z,9.68
2023-06-17T08:27:32.185Z,8.85
2023-06-17T08:29:59.948Z,6.40
2023-06-17T08:32:26.737Z,6.97
2023-06-17T08:34:53.317Z,6.85
2023-06-17T08:37:19.799Z,6.78
2023-06-17T08:39:46.316Z,4.65
2023-06-17T08:42:12.872Z,6.50
2023-06-17T08:44:45.626Z,8.13
2023-06-17T08:47:18.670Z,5.38
2023-06-17T08:49:45.642Z,7.57
2023-06-17T08:52:14.892Z,9.32
2023-06-17T08:54:41.945Z,6.13
2023-06-17T08:57:13.972Z,6.75
2023-06-17T08:59:43.569Z,6.60
2023-06-17T09:02:13.264Z,7.57
2023-06-17T09:04:41.025Z,7.63
2023-06-17T09:07:10.761Z,6.05
2023-06-17T09:09:38.207Z,8.68
2023-06-17T09:12:06.982Z,7.68
2023-06-17T09:14:34.384Z,8.65
2023-06-17T09:17:02.094Z,5.82
2023-06-17T09:19:31.428Z,9.15
2023-06-17T09:22:06.187Z,9.13
2023-06-17T09:24:33.184Z,5.65
2023-06-17T09:26:59.911Z,6.57
2023-06-17T09:29:30.435Z,6.32
2023-06-17T09:31:57.431Z,5.35
2023-06-17T09:34:25.806Z,13.40
2023-06-17T09:37:01.512Z,4.90
2023-06-17T09:39:32.229Z,4.30
2023-06-17T09:42:09.052Z,6.35
2023-06-17T09:44:38.123Z,5.07
2023-06-17T09:47:09.162Z,10.40
2023-06-17T09:49:37.915Z,6.90
2023-06-17T09:52:06.865Z,4.10
2023-06-17T09:54:37.015Z,4.93
2023-06-17T09:57:06.852Z,4.57
2023-06-17T09:59:33.512Z,4.50
2023-06-17T10:02:00.126Z,4.25
2023-06-17T10:04:26.839Z,4.30
2023-06-17T10:06:54.301Z,4.20
2023-06-17T10:09:21.278Z,5.53
2023-06-17T10:11:52.171Z,5.30
2023-06-17T10:14:24.932Z,3.27
2023-06-17T10:16:52.150Z,5.78
2023-06-17T10:19:23.862Z,3.67
2023-06-17T10:24:20.877Z,3.42
2023-06-17T10:26:51.381Z,3.78
2023-06-17T10:29:18.500Z,3.65
2023-06-17T10:31:45.105Z,3.08
2023-06-17T10:34:16.879Z,3.50
2023-06-17T10:39:13.751Z,3.03
2023-06-17T10:41:43.051Z,3.42
2023-06-17T10:44:21.611Z,3.22
2023-06-17T10:46:51.916Z,3.95
2023-06-17T10:49:19.999Z,5.07
2023-06-17T10:52:00.276Z,2.55
2023-06-17T10:54:34.243Z,3.03
2023-06-17T10:57:05.809Z,6.47
2023-06-17T10:59:33.304Z,4.68
2023-06-17T11:02:05.221Z,3.60
2023-06-17T11:04:33.264Z,6.07
2023-06-17T11:07:00.900Z,3.83
2023-06-17T11:09:28.655Z,4.15
2023-06-17T11:11:56.241Z,3.85
2023-06-17T11:14:23.524Z,4.32
2023-06-17T11:16:50.761Z,4.05
2023-06-17T11:19:17.357Z,3.25
2023-06-17T11:21:43.977Z,4.50
2023-06-17T11:24:12.270Z,4.65
2023-06-17T11:26:38.858Z,4.00
2023-06-17T11:29:06.230Z,6.25
2023-06-17T11:31:41.557Z,4.18
2023-06-17T11:34:09.666Z,3.75
2023-06-17T11:36:39.383Z,3.53
2023-06-17T11:39:05.982Z,3.33
2023-06-17T11:41:34.711Z,3.60
2023-06-17T11:44:02.040Z,7.00
2023-06-17T11:46:28.676Z,3.95
2023-06-17T11:48:56.397Z,3.83
2023-06-17T11:51:24.149Z,5.28
2023-06-17T11:53:51.428Z,3.70
2023-06-17T11:56:23.262Z,4.72
2023-06-17T11:58:53.084Z,4.22
2023-06-17T12:01:24.759Z,3.75
2023-06-17T12:03:51.682Z,4.57
2023-06-17T12:06:19.769Z,4.80
2023-06-17T12:08:55.841Z,4.82
2023-06-17T12:11:26.459Z,6.00
2023-06-17T12:13:53.497Z,3.08
2023-06-17T12:16:36.666Z,4.18
2023-06-17T12:19:06.271Z,3.72
2023-06-17T12:21:34.100Z,5.10
2023-06-17T12:24:00.910Z,7.75
2023-06-17T12:26:28.090Z,2.90
2023-06-17T12:28:55.544Z,4.28
2023-06-17T12:31:23.179Z,3.08
2023-06-17T12:33:50.206Z,6.80
2023-06-17T12:36:17.887Z,2.65
2023-06-17T12:38:45.744Z,4.47
2023-06-17T12:41:12.595Z,6.28
2023-06-17T12:43:40.573Z,5.53
2023-06-17T12:46:09.665Z,5.07
2023-06-17T12:48:36.367Z,3.20
2023-06-17T12:51:08.028Z,5.45
2023-06-17T12:53:35.638Z,3.33
2023-06-17T12:56:02.417Z,6.78
2023-06-17T12:58:29.224Z,7.95
2023-06-17T13:00:56.107Z,7.43
2023-06-17T13:03:22.912Z,4.38
2023-06-17T13:05:51.168Z,3.58
2023-06-17T13:08:18.480Z,4.53
2023-06-17T13:10:45.067Z,3.20
2023-06-17T13:13:11.831Z,8.00
2023-06-17T13:15:38.901Z,3.83
2023-06-17T13:18:05.707Z,8.32
2023-06-17T13:20:32.753Z,7.57
2023-06-17T13:23:00.800Z,4.05
2023-06-17T13:25:27.608Z,3.00
2023-06-17T13:27:55.126Z,3.03
2023-06-17T13:30:21.911Z,4.03
2023-06-17T13:32:48.894Z,4.97
2023-06-17T13:35:15.499Z,4.70
2023-06-17T13:37:42.035Z,2.72
2023-06-17T13:40:09.131Z,2.42
2023-06-17T13:42:35.651Z,4.45
2023-06-17T13:45:02.381Z,6.05
2023-06-17T13:47:29.149Z,4.20
2023-06-17T13:49:55.801Z,3.25
2023-06-17T13:52:22.291Z,6.38
2023-06-17T13:54:48.895Z,3.08
2023-06-17T13:57:16.126Z,2.58
2023-06-17T13:59:43.274Z,3.00
2023-06-17T14:02:10.030Z,4.57
2023-06-17T14:04:36.859Z,3.80
2023-06-17T14:07:03.502Z,3.70
2023-06-17T14:09:30.453Z,4.32
2023-06-17T14:11:57.414Z,4.50
2023-06-17T14:14:23.967Z,4.93
2023-06-17T14:16:50.680Z,3.80
2023-06-17T14:19:17.236Z,5.53
2023-06-17T14:21:56.087Z,4.45
2023-06-17T14:24:22.819Z,2.45
2023-06-17T14:26:52.970Z,3.28
2023-06-17T14:29:19.539Z,3.60
2023-06-17T14:31:46.097Z,2.70
2023-06-17T14:34:12.635Z,2.75
2023-06-17T14:36:39.174Z,4.07
2023-06-17T14:39:05.929Z,2.85
2023-06-17T14:41:33.773Z,3.65
2023-06-17T14:44:00.645Z,3.35
2023-06-17T14:46:27.221Z,4.45
2023-06-17T14:48:54.288Z,3.85
2023-06-17T14:51:20.839Z,4.68
2023-06-17T14:53:47.358Z,3.45
2023-06-17T14:56:33.551Z,3.28
2023-06-17T14:59:01.963Z,5.55
2023-06-17T15:01:33.293Z,2.88
2023-06-17T15:04:00.341Z,4.77
2023-06-17T15:06:26.925Z,3.38
2023-06-17T15:09:02.140Z,3.30
2023-06-17T15:11:28.642Z,5.75
2023-06-17T15:13:55.165Z,4.72
2023-06-17T15:16:22.632Z,4.30
2023-06-17T15:18:49.185Z,5.28
2023-06-17T15:21:15.918Z,3.72
2023-06-17T15:23:42.921Z,3.22
2023-06-17T15:26:10.383Z,5.55
2023-06-17T15:28:37.650Z,4.40
2023-06-17T15:31:04.226Z,6.47
2023-06-17T15:33:30.886Z,4.72
2023-06-17T15:35:57.640Z,4.32
2023-06-17T15:38:24.139Z,4.00
2023-06-17T15:40:50.958Z,4.55
2023-06-17T15:43:17.434Z,4.70
2023-06-17T15:45:43.922Z,4.53
2023-06-17T15:48:10.543Z,7.35
2023-06-17T15:50:37.483Z,3.85
2023-06-17T15:53:04.066Z,5.18
2023-06-17T15:55:30.720Z,3.67
2023-06-17T15:57:57.363Z,4.88
2023-06-17T16:00:24.180Z,3.88
2023-06-17T16:02:50.926Z,4.20
2023-06-17T16:05:17.509Z,4.00
2023-06-17T16:07:44.082Z,4.70
2023-06-17T16:10:11.139Z,3.80
2023-06-17T16:12:38.644Z,5.63
2023-06-17T16:15:08.906Z,3.97
2023-06-17T16:17:36.395Z,5.38
2023-06-17T16:20:03.020Z,3.00
2023-06-17T16:22:29.581Z,5.50
2023-06-17T16:24:56.188Z,4.30
2023-06-17T16:27:22.886Z,3.22
2023-06-17T16:29:49.384Z,3.90
2023-06-17T16:32:16.093Z,3.47
2023-06-17T16:34:43.393Z,3.08
2023-06-17T16:37:10.420Z,3.33
2023-06-17T16:39:37.103Z,3.15
2023-06-17T16:42:06.589Z,3.13
2023-06-17T16:44:33.918Z,3.35
2023-06-17T16:47:00.656Z,3.60
2023-06-17T16:49:27.184Z,5.47
2023-06-17T16:51:53.805Z,4.10
2023-06-17T16:54:20.341Z,6.45
2023-06-17T16:56:47.040Z,3.42
2023-06-17T16:59:13.734Z,5.95
2023-06-17T17:01:41.350Z,3.50
2023-06-17T17:04:13.377Z,4.88
2023-06-17T17:06:40.882Z,5.40
2023-06-17T17:09:07.961Z,5.38
2023-06-17T17:11:34.511Z,3.88
2023-06-17T17:14:01.725Z,4.90
2023-06-17T17:16:28.741Z,3.58
2023-06-17T17:18:55.477Z,3.78
2023-06-17T17:21:22.048Z,3.80
2023-06-17T17:23:48.617Z,4.65
2023-06-17T17:26:15.269Z,5.20
2023-06-17T17:28:42.941Z,4.68
2023-06-17T17:31:10.116Z,3.30
2023-06-17T17:33:37.063Z,5.70
2023-06-17T17:36:03.835Z,8.50
2023-06-17T17:38:31.317Z,5.22
2023-06-17T17:40:57.829Z,5.00
2023-06-17T17:43:24.314Z,4.38
2023-06-17T17:45:50.846Z,3.20
2023-06-17T17:48:17.450Z,6.82
2023-06-17T17:50:44.072Z,3.72
2023-06-17T17:53:10.704Z,5.40
2023-06-17T17:55:37.248Z,7.43
2023-06-17T17:58:04.261Z,5.50
2023-06-17T18:00:30.786Z,4.75
2023-06-17T18:02:57.525Z,7.85
2023-06-17T18:05:24.082Z,4.85
2023-06-17T18:07:50.930Z,6.40
2023-06-17T18:10:17.507Z,4.93
2023-06-17T18:12:43.996Z,3.28
2023-06-17T18:15:11.487Z,5.78
2023-06-17T18:17:38.420Z,4.53
2023-06-17T18:20:06.122Z,5.93
2023-06-17T18:22:32.668Z,6.65
2023-06-17T18:24:59.198Z,3.17
2023-06-17T18:27:35.094Z,7.45
2023-06-17T18:30:04.429Z,3.92
2023-06-17T18:32:31.268Z,4.82
2023-06-17T18:34:57.824Z,6.88
2023-06-17T18:37:24.309Z,5.65
2023-06-17T18:39:50.872Z,6.28
2023-06-17T18:42:17.385Z,4.35
2023-06-17T18:44:44.660Z,5.18
2023-06-17T18:47:11.451Z,5.97
2023-06-17T18:49:38.697Z,6.40
2023-06-17T18:52:05.710Z,6.65
2023-06-17T18:54:32.755Z,5.95
2023-06-17T18:56:59.365Z,6.28
2023-06-17T18:59:25.842Z,8.07
2023-06-17T19:01:52.479Z,10.40
2023-06-17T19:04:19.228Z,4.10
2023-06-17T19:06:45.829Z,6.82
2023-06-17T19:09:12.400Z,4.20
2023-06-17T19:11:38.945Z,5.30
2023-06-17T19:14:05.878Z,5.55
2023-06-17T19:16:32.482Z,6.28
2023-06-17T19:18:59.311Z,3.58
2023-06-17T19:21:25.845Z,5.05
2023-06-17T19:23:53.117Z,4.25
2023-06-17T19:26:19.779Z,3.35
2023-06-17T19:28:46.380Z,8.25
2023-06-17T19:31:12.923Z,3.47
2023-06-17T19:33:39.442Z,6.63
2023-06-17T19:36:06.515Z,4.88
2023-06-17T19:38:33.704Z,5.18
2023-06-17T19:41:00.387Z,9.27
2023-06-17T19:43:27.162Z,8.20
2023-06-17T19:45:55.506Z,7.25
2023-06-17T19:48:22.163Z,8.52
2023-06-17T19:50:48.704Z,5.80
2023-06-17T19:53:15.291Z,6.95
2023-06-17T19:55:42.290Z,5.50
2023-06-17T19:58:08.812Z,7.50
2023-06-17T20:00:37.520Z,6.80
2023-06-17T20:03:04.427Z,5.32
2023-06-17T20:05:31.176Z,12.35
2023-06-17T20:07:57.746Z,6.53
2023-06-17T20:10:24.527Z,8.88
2023-06-17T20:12:51.773Z,5.70
2023-06-17T20:15:18.334Z,6.10
2023-06-17T20:17:44.875Z,6.82
2023-06-17T20:20:14.076Z,6.88
2023-06-17T20:22:41.602Z,5.45
2023-06-17T20:25:08.524Z,6.88
2023-06-17T20:27:35.139Z,10.23
2023-06-17T20:30:01.628Z,4.55
2023-06-17T20:32:28.226Z,7.78
2023-06-17T20:34:54.816Z,9.32
2023-06-17T20:37:21.474Z,5.32
2023-06-17T20:39:48.002Z,7.43
2023-06-17T20:42:14.603Z,7.35
2023-06-17T20:44:41.196Z,6.35
2023-06-17T20:47:08.990Z,7.55
2023-06-17T20:49:36.362Z,11.02
2023-06-17T20:52:03.104Z,5.30
2023-06-17T20:54:29.629Z,7.07
2023-06-17T20:56:57.242Z,7.53
2023-06-17T20:59:25.489Z,5.05
2023-06-17T21:01:52.441Z,5.43
2023-06-17T21:04:19.181Z,5.93
2023-06-17T21:06:45.886Z,5.47
2023-06-17T21:09:13.796Z,5.70
2023-06-17T21:11:40.532Z,6.05
2023-06-17T21:14:07.140Z,4.90
2023-06-17T21:16:33.762Z,7.55
2023-06-17T21:19:00.398Z,5.93
2023-06-17T21:21:29.946Z,7.03
2023-06-17T21:23:56.547Z,9.80
2023-06-17T21:26:23.310Z,8.68
2023-06-17T21:28:49.917Z,6.82
2023-06-17T21:31:16.425Z,5.68
2023-06-17T21:33:43.027Z,6.72
2023-06-17T21:36:09.581Z,7.38
2023-06-17T21:38:36.073Z,5.90
2023-06-17T21:41:02.730Z,5.55
2023-06-17T21:43:33.243Z,7.32
2023-06-17T21:46:00.991Z,8.32
2023-06-17T21:48:28.190Z,8.13
2023-06-17T21:50:54.672Z,7.20
2023-06-17T21:53:21.313Z,10.40
2023-06-17T21:55:48.134Z,7.32
2023-06-17T21:58:14.706Z,7.15
2023-06-17T22:00:41.258Z,6.78
2023-06-17T22:03:07.894Z,8.70
2023-06-17T22:05:34.958Z,7.13
2023-06-17T22:08:01.451Z,6.50
2023-06-17T22:10:27.944Z,7.55
2023-06-17T22:12:55.602Z,6.95
2023-06-17T22:15:22.201Z,5.30
2023-06-17T22:17:48.756Z,7.50
2023-06-17T22:20:15.652Z,6.50
2023-06-17T22:22:42.642Z,8.38
2023-06-17T22:25:09.451Z,6.32
2023-06-17T22:27:36.030Z,7.63
2023-06-17T22:30:03.572Z,8.55
2023-06-17T22:32:30.092Z,6.25
2023-06-17T22:34:58.643Z,8.48
2023-06-17T22:37:25.622Z,6.40
2023-06-17T22:39:52.181Z,5.68
2023-06-17T22:42:18.738Z,6.47
2023-06-17T22:44:45.256Z,6.78
2023-06-17T22:47:11.831Z,9.15
2023-06-17T22:49:38.389Z,9.52
2023-06-17T22:52:05.473Z,8.63
2023-06-17T22:54:32.887Z,6.97
2023-06-17T22:56:59.437Z,7.88
2023-06-17T22:59:25.932Z,6.63
2023-06-17T23:01:52.928Z,9.05
2023-06-17T23:04:19.452Z,5.40
2023-06-17T23:06:46.265Z,7.25
2023-06-17T23:09:12.787Z,7.70
2023-06-17T23:11:39.314Z,9.35
2023-06-17T23:14:05.835Z,9.77
2023-06-17T23:16:32.761Z,7.13
2023-06-17T23:18:59.465Z,8.73
2023-06-17T23:21:27.071Z,7.20
2023-06-17T23:23:53.773Z,6.93
2023-06-17T23:26:20.313Z,6.07
2023-06-17T23:28:46.834Z,7.82
2023-06-17T23:31:15.027Z,9.27
2023-06-17T23:33:41.662Z,5.60
2023-06-17T23:36:08.805Z,8.73
2023-06-17T23:38:40.533Z,8.20
2023-06-17T23:41:07.238Z,5.90
2023-06-17T23:43:33.754Z,5.88
2023-06-17T23:46:01.156Z,6.47
2023-06-17T23:48:28.127Z,7.68
2023-06-17T23:50:54.709Z,6.93
2023-06-17T23:53:21.281Z,7.20
2023-06-17T23:55:48.317Z,5.35
2023-06-17T23:58:15.143Z,11.25
